createdAt,value
2018-12-18T00:00:27.216Z,7.9
2018-12-18T00:01:28.730Z,7.9
2018-12-18T00:02:30.268Z,7.9
2018-12-18T00:03:31.803Z,7.9
2018-12-18T00:04:33.024Z,7.9
2018-12-18T00:05:34.549Z,7.9
2018-12-18T00:06:35.912Z,7.9
2018-12-18T00:07:37.445Z,7.9
2018-12-18T00:08:38.960Z,7.9
2018-12-18T00:09:40.494Z,7.9
2018-12-18T00:10:42.026Z,7.9
2018-12-18T00:11:43.575Z,7.8
2018-12-18T00:12:45.114Z,7.8
2018-12-18T00:13:46.652Z,7.8
2018-12-18T00:14:48.184Z,7.8
2018-12-18T00:15:49.564Z,7.7
2018-12-18T00:16:50.953Z,7.7
2018-12-18T00:17:52.327Z,7.7
2018-12-18T00:18:53.861Z,7.7
2018-12-18T00:19:55.396Z,7.7
2018-12-18T00:20:56.920Z,7.7
2018-12-18T00:21:58.276Z,7.6
2018-12-18T00:22:59.338Z,7.6
2018-12-18T00:24:00.722Z,7.6
2018-12-18T00:25:01.930Z,7.6
2018-12-18T00:26:03.148Z,7.6
2018-12-18T00:27:04.683Z,7.6
2018-12-18T00:28:06.050Z,7.5
2018-12-18T00:29:07.443Z,7.6
2018-12-18T00:30:08.950Z,7.5
2018-12-18T00:31:10.309Z,7.6
2018-12-18T00:32:11.613Z,7.6
2018-12-18T00:33:12.997Z,7.6
2018-12-18T00:34:14.373Z,7.6
2018-12-18T00:35:15.922Z,7.7
2018-12-18T00:36:17.487Z,7.7
2018-12-18T00:37:19.036Z,7.7
2018-12-18T00:38:20.410Z,7.7
2018-12-18T00:39:21.779Z,7.7
2018-12-18T00:40:23.050Z,7.7
2018-12-18T00:41:24.406Z,7.7
2018-12-18T00:42:25.930Z,7.8
2018-12-18T00:43:27.466Z,7.7
2018-12-18T00:44:29.002Z,7.7
2018-12-18T00:45:30.536Z,7.7
2018-12-18T00:46:32.091Z,7.7
2018-12-18T00:47:33.624Z,7.7
2018-12-18T00:48:34.993Z,7.7
2018-12-18T00:49:36.353Z,7.8
2018-12-18T00:50:37.739Z,7.8
2018-12-18T00:51:39.102Z,7.8
2018-12-18T00:52:40.460Z,7.8
2018-12-18T00:53:41.980Z,7.9
2018-12-18T00:54:43.349Z,7.9
2018-12-18T00:55:44.720Z,7.9
2018-12-18T00:56:46.242Z,7.9
2018-12-18T00:57:47.765Z,7.9
2018-12-18T00:58:49.152Z,7.2
2018-12-18T00:59:50.681Z,7.2
2018-12-18T01:00:52.216Z,7.3
2018-12-18T01:01:53.751Z,7.3
2018-12-18T01:02:55.300Z,7.4
2018-12-18T01:03:56.831Z,7.4
2018-12-18T01:04:58.211Z,7.5
2018-12-18T01:05:59.742Z,7.5
2018-12-18T01:07:01.350Z,7.6
2018-12-18T01:08:02.880Z,7.6
2018-12-18T01:09:04.231Z,7.7
2018-12-18T01:10:05.584Z,7.7
2018-12-18T01:11:06.803Z,7.7
2018-12-18T01:12:08.194Z,7.8
2018-12-18T01:13:09.562Z,7.7
2018-12-18T01:14:10.920Z,7.7
2018-12-18T01:15:12.282Z,7.7
2018-12-18T01:16:13.676Z,7.8
2018-12-18T01:17:15.204Z,7.8
2018-12-18T01:18:16.720Z,7.8
2018-12-18T01:19:17.956Z,7.8
2018-12-18T01:20:19.338Z,7.8
2018-12-18T01:21:20.761Z,7.8
2018-12-18T01:22:22.126Z,7.8
2018-12-18T01:23:23.481Z,7.8
2018-12-18T01:24:24.860Z,7.8
2018-12-18T01:25:26.387Z,7.8
2018-12-18T01:26:27.751Z,7.8
2018-12-18T01:27:29.299Z,7.9
2018-12-18T01:28:30.829Z,7.9
2018-12-18T01:29:32.367Z,7.9
2018-12-18T01:30:33.901Z,7.9
2018-12-18T01:31:35.288Z,7.9
2018-12-18T01:32:36.527Z,7.9
2018-12-18T01:33:38.051Z,7.8
2018-12-18T01:34:39.431Z,7.9
2018-12-18T01:35:40.967Z,7.8
2018-12-18T01:36:42.344Z,7.8
2018-12-18T01:37:43.712Z,7.8
2018-12-18T01:38:45.068Z,7.8
2018-12-18T01:39:46.597Z,7.8
2018-12-18T01:40:47.969Z,7.8
2018-12-18T01:41:49.498Z,7.8
2018-12-18T01:42:50.871Z,7.8
2018-12-18T01:43:52.389Z,7.8
2018-12-18T01:44:53.910Z,7.8
2018-12-18T01:45:55.431Z,7.8
2018-12-18T01:46:56.643Z,7.8
2018-12-18T01:47:58.174Z,7.8
2018-12-18T01:48:59.711Z,7.8
2018-12-18T01:50:01.094Z,7.8
2018-12-18T01:51:02.360Z,7.8
2018-12-18T01:52:03.924Z,7.8
2018-12-18T01:53:05.456Z,7.8
2018-12-18T01:54:07.032Z,7.7
2018-12-18T01:55:08.572Z,7.8
2018-12-18T01:56:10.162Z,7.8
2018-12-18T01:57:11.528Z,7.8
2018-12-18T01:58:12.912Z,7.8
2018-12-18T01:59:14.276Z,7.8
2018-12-18T02:00:15.813Z,7.8
2018-12-18T02:01:17.184Z,7.8
2018-12-18T02:02:18.390Z,7.8
2018-12-18T02:03:19.772Z,7.8
2018-12-18T02:04:21.302Z,7.8
2018-12-18T02:05:22.842Z,7.7
2018-12-18T02:06:24.362Z,7.6
2018-12-18T02:07:26.064Z,7.5
2018-12-18T02:08:27.438Z,7.3
2018-12-18T02:09:28.812Z,7.1
2018-12-18T02:10:30.170Z,7.1
2018-12-18T02:11:31.386Z,7.2
2018-12-18T02:12:32.751Z,7.2
2018-12-18T02:13:34.326Z,7.2
2018-12-18T02:14:35.696Z,7.2
2018-12-18T02:15:37.062Z,7.2
2018-12-18T02:16:38.583Z,7.2
2018-12-18T02:17:39.952Z,7.2
2018-12-18T02:18:41.312Z,7.2
2018-12-18T02:19:42.848Z,7.2
2018-12-18T02:20:44.372Z,7.2
2018-12-18T02:21:45.971Z,7.2
2018-12-18T02:22:47.498Z,7.2
2018-12-18T02:23:48.861Z,7.2
2018-12-18T02:24:50.394Z,7.1
2018-12-18T02:25:51.901Z,7.1
2018-12-18T02:26:53.276Z,7.1
2018-12-18T02:27:54.796Z,7.1
2018-12-18T02:28:56.321Z,7.1
2018-12-18T02:29:57.856Z,7.1
2018-12-18T02:30:59.226Z,7.1
2018-12-18T02:32:00.741Z,7.1
2018-12-18T02:33:02.252Z,7.1
2018-12-18T02:34:03.646Z,7.1
2018-12-18T02:35:05.198Z,7.1
2018-12-18T02:36:06.802Z,7.1
2018-12-18T02:37:08.350Z,7.1
2018-12-18T02:38:09.891Z,7.1
2018-12-18T02:39:11.455Z,7.1
2018-12-18T02:40:12.694Z,7.1
2018-12-18T02:41:13.913Z,7.1
2018-12-18T02:42:15.696Z,7.1
2018-12-18T02:43:17.229Z,7.1
2018-12-18T02:44:18.646Z,7.1
2018-12-18T02:45:20.038Z,7.1
2018-12-18T02:46:21.421Z,7.2
2018-12-18T02:47:22.946Z,7.2
2018-12-18T02:48:24.313Z,7.2
2018-12-18T02:49:25.850Z,7.2
2018-12-18T02:50:27.242Z,7.2
2018-12-18T02:51:28.630Z,7.2
2018-12-18T02:52:30.182Z,7.2
2018-12-18T02:53:31.722Z,7.2
2018-12-18T02:54:33.268Z,7.2
2018-12-18T02:55:34.795Z,7.2
2018-12-18T02:56:36.015Z,7.2
2018-12-18T02:57:37.546Z,7.2
2018-12-18T02:58:38.613Z,7.2
2018-12-18T02:59:40.014Z,7.2
2018-12-18T03:00:41.401Z,7.2
2018-12-18T03:01:43.066Z,7.2
2018-12-18T03:02:44.462Z,7.2
2018-12-18T03:03:46.002Z,7.2
2018-12-18T03:04:47.065Z,7.2
2018-12-18T03:05:48.462Z,7.2
2018-12-18T03:06:49.981Z,7.2
2018-12-18T03:07:51.538Z,7.2
2018-12-18T03:08:53.091Z,7.2
2018-12-18T03:09:54.473Z,7.2
2018-12-18T03:10:56.013Z,7.2
2018-12-18T03:11:57.397Z,7.2
2018-12-18T03:12:58.775Z,7.3
2018-12-18T03:14:00.542Z,7.3
2018-12-18T03:15:01.916Z,7.3
2018-12-18T03:16:03.476Z,7.3
2018-12-18T03:17:04.856Z,7.3
2018-12-18T03:18:06.415Z,7.3
2018-12-18T03:19:07.812Z,7.3
2018-12-18T03:20:09.189Z,7.3
2018-12-18T03:21:10.737Z,7.3
2018-12-18T03:22:12.283Z,7.3
2018-12-18T03:23:13.886Z,7.3
2018-12-18T03:24:15.431Z,7.3
2018-12-18T03:25:17.000Z,7.2
2018-12-18T03:26:18.530Z,7.2
2018-12-18T03:27:20.070Z,7.2
2018-12-18T03:28:21.306Z,7.2
2018-12-18T03:29:22.833Z,7.2
2018-12-18T03:30:24.373Z,7.2
2018-12-18T03:31:25.955Z,7.3
2018-12-18T03:32:27.564Z,7.3
2018-12-18T03:33:28.962Z,7.2
2018-12-18T03:34:30.514Z,7.2
2018-12-18T03:35:32.109Z,7.3
2018-12-18T03:36:33.644Z,7.3
2018-12-18T03:37:34.880Z,7.3
2018-12-18T03:38:51.111Z,7.3
2018-12-18T03:39:52.642Z,7.3
2018-12-18T03:40:54.170Z,7.4
2018-12-18T03:41:55.685Z,7.4
2018-12-18T03:42:57.228Z,7.5
2018-12-18T03:43:58.298Z,7.5
2018-12-18T03:45:00.045Z,7.6
2018-12-18T03:46:01.436Z,7.6
2018-12-18T03:47:03.034Z,7.6
2018-12-18T03:48:04.422Z,7.7
2018-12-18T03:49:05.959Z,7.7
2018-12-18T03:50:07.542Z,7.8
2018-12-18T03:51:08.760Z,7.7
2018-12-18T03:52:10.126Z,7.8
2018-12-18T03:53:11.510Z,7.8
2018-12-18T03:54:13.080Z,7.8
2018-12-18T03:55:14.477Z,7.8
2018-12-18T03:56:15.866Z,7.8
2018-12-18T03:57:17.234Z,7.8
2018-12-18T03:58:18.652Z,7.8
2018-12-18T03:59:20.205Z,7.9
2018-12-18T04:00:21.747Z,7.9
2018-12-18T04:01:23.278Z,7.9
2018-12-18T04:02:24.674Z,7.9
2018-12-18T04:03:26.217Z,7.9
2018-12-18T04:04:27.762Z,7.9
2018-12-18T04:05:29.146Z,7.9
2018-12-18T04:06:30.525Z,7.8
2018-12-18T04:07:32.049Z,7.8
2018-12-18T04:08:33.573Z,7.8
2018-12-18T04:09:34.964Z,7.8
2018-12-18T04:10:36.540Z,7.9
2018-12-18T04:11:38.077Z,7.9
2018-12-18T04:12:39.453Z,7.9
2018-12-18T04:13:41.018Z,7.9
2018-12-18T04:14:42.543Z,7.9
2018-12-18T04:15:44.073Z,7.9
2018-12-18T04:16:45.628Z,7.9
2018-12-18T04:17:47.181Z,7.9
2018-12-18T04:18:48.573Z,7.9
2018-12-18T04:19:50.118Z,7.8
2018-12-18T04:20:51.671Z,7.8
2018-12-18T04:21:52.955Z,7.7
2018-12-18T04:22:54.179Z,7.6
2018-12-18T04:23:55.711Z,7.6
2018-12-18T04:24:56.952Z,7.5
2018-12-18T04:25:58.343Z,7.4
2018-12-18T04:26:59.731Z,7.2
2018-12-18T04:28:00.942Z,7.2
2018-12-18T04:29:02.170Z,7.2
2018-12-18T04:30:03.723Z,7.2
2018-12-18T04:31:05.107Z,7.2
2018-12-18T04:32:06.505Z,7.2
2018-12-18T04:33:07.885Z,7.2
2018-12-18T04:34:09.430Z,7.2
2018-12-18T04:35:10.961Z,7.2
2018-12-18T04:36:12.496Z,7.2
2018-12-18T04:37:14.039Z,7.2
2018-12-18T04:38:15.283Z,7.2
2018-12-18T04:39:16.795Z,7.2
2018-12-18T04:40:18.170Z,7.2
2018-12-18T04:41:19.683Z,7.2
2018-12-18T04:42:21.063Z,7.2
2018-12-18T04:43:22.451Z,7.3
2018-12-18T04:44:24.204Z,7.3
2018-12-18T04:45:25.657Z,7.4
2018-12-18T04:46:27.273Z,7.5
2018-12-18T04:47:28.651Z,7.6
2018-12-18T04:48:30.323Z,7.7
2018-12-18T04:49:31.873Z,7.7
2018-12-18T04:50:33.464Z,7.8
2018-12-18T04:51:35.032Z,7.8
2018-12-18T04:52:36.614Z,7.8
2018-12-18T04:53:38.162Z,7.9
2018-12-18T04:54:39.562Z,7.8
2018-12-18T04:55:41.142Z,7.9
2018-12-18T04:56:42.375Z,7.8
2018-12-18T04:57:43.995Z,7.8
2018-12-18T04:58:45.576Z,7.8
2018-12-18T04:59:46.983Z,7.8
2018-12-18T05:00:48.629Z,7.8
2018-12-18T05:01:50.192Z,7.2
2018-12-18T05:02:51.418Z,7.2
2018-12-18T05:03:52.660Z,7.3
2018-12-18T05:04:54.209Z,7.3
2018-12-18T05:05:55.448Z,7.3
2018-12-18T05:06:56.826Z,7.3
2018-12-18T05:07:58.239Z,7.4
2018-12-18T05:08:59.782Z,7.4
2018-12-18T05:10:01.014Z,7.4
2018-12-18T05:11:02.414Z,7.4
2018-12-18T05:12:03.635Z,7.4
2018-12-18T05:13:05.032Z,7.5
2018-12-18T05:14:06.570Z,7.5
2018-12-18T05:15:07.938Z,7.5
2018-12-18T05:16:09.474Z,7.5
2018-12-18T05:17:10.712Z,7.5
2018-12-18T05:18:12.239Z,7.5
2018-12-18T05:19:13.611Z,7.6
2018-12-18T05:20:15.005Z,7.6
2018-12-18T05:21:16.532Z,7.6
2018-12-18T05:22:17.911Z,7.6
2018-12-18T05:23:19.456Z,7.6
2018-12-18T05:24:20.845Z,7.6
2018-12-18T05:25:22.225Z,7.6
2018-12-18T05:26:23.606Z,7.6
2018-12-18T05:27:25.134Z,7.7
2018-12-18T05:28:26.688Z,7.7
2018-12-18T05:29:28.211Z,7.7
2018-12-18T05:30:29.764Z,7.7
2018-12-18T05:31:31.308Z,7.7
2018-12-18T05:32:32.720Z,7.7
2018-12-18T05:33:34.116Z,7.8
2018-12-18T05:34:35.652Z,7.8
2018-12-18T05:35:37.239Z,7.8
2018-12-18T05:36:38.784Z,7.8
2018-12-18T05:37:40.302Z,7.8
2018-12-18T05:38:41.674Z,7.8
2018-12-18T05:39:43.226Z,7.7
2018-12-18T05:40:44.790Z,7.7
2018-12-18T05:41:46.348Z,7.7
2018-12-18T05:42:47.900Z,7.6
2018-12-18T05:43:49.301Z,7.6
2018-12-18T05:44:50.683Z,7.6
2018-12-18T05:45:52.072Z,7.6
2018-12-18T05:46:53.602Z,7.6
2018-12-18T05:47:54.963Z,7.5
2018-12-18T05:48:56.497Z,7.5
2018-12-18T05:49:57.722Z,7.5
2018-12-18T05:50:59.095Z,7.5
2018-12-18T05:52:00.313Z,7.5
2018-12-18T05:53:01.699Z,7.4
2018-12-18T05:54:03.253Z,7.4
2018-12-18T05:55:04.774Z,7.4
2018-12-18T05:56:06.332Z,7.4
2018-12-18T05:57:07.891Z,7.4
2018-12-18T05:58:09.339Z,7.3
2018-12-18T05:59:10.712Z,7.3
2018-12-18T06:00:12.313Z,7.4
2018-12-18T06:01:13.843Z,7.4
2018-12-18T06:02:15.257Z,7.5
2018-12-18T06:03:16.846Z,7.5
2018-12-18T06:04:18.376Z,7.6
2018-12-18T06:05:19.755Z,7.6
2018-12-18T06:06:21.299Z,7.7
2018-12-18T06:07:22.823Z,7.7
2018-12-18T06:08:24.197Z,7.7
2018-12-18T06:09:25.754Z,7.7
2018-12-18T06:10:27.269Z,7.6
2018-12-18T06:11:28.789Z,7.6
2018-12-18T06:12:30.323Z,7.5
2018-12-18T06:13:31.879Z,7.4
2018-12-18T06:15:02.797Z,7.4
2018-12-18T06:16:04.175Z,7.2
2018-12-18T06:17:05.809Z,7.2
2018-12-18T06:18:07.343Z,7.2
2018-12-18T06:19:08.873Z,7.2
2018-12-18T06:20:10.390Z,7.2
2018-12-18T06:21:12.275Z,7.1
2018-12-18T06:22:14.008Z,7.2
2018-12-18T06:23:15.535Z,7.2
2018-12-18T06:24:17.081Z,7.2
2018-12-18T06:25:18.483Z,7.2
2018-12-18T06:26:20.051Z,7.2
2018-12-18T06:27:21.575Z,7.2
2018-12-18T06:28:23.131Z,7.2
2018-12-18T06:29:24.658Z,7.2
2018-12-18T06:30:26.197Z,7.3
2018-12-18T06:31:27.562Z,7.3
2018-12-18T06:32:29.148Z,7.4
2018-12-18T06:33:30.686Z,7.4
2018-12-18T06:34:32.223Z,7.5
2018-12-18T06:35:33.754Z,7.6
2018-12-18T06:36:35.283Z,7.6
2018-12-18T06:37:36.796Z,7.7
2018-12-18T06:38:38.351Z,7.8
2018-12-18T06:39:39.763Z,7.8
2018-12-18T06:40:41.294Z,7.8
2018-12-18T06:41:42.835Z,7.8
2018-12-18T06:42:44.382Z,7.9
2018-12-18T06:43:45.923Z,7.9
2018-12-18T06:44:47.142Z,7.9
2018-12-18T06:45:48.671Z,7.9
2018-12-18T06:46:50.065Z,7.9
2018-12-18T06:47:51.438Z,7.9
2018-12-18T06:48:53.014Z,7.9
2018-12-18T06:49:54.387Z,7.9
2018-12-18T06:50:55.753Z,7.9
2018-12-18T06:51:56.953Z,7.9
2018-12-18T06:52:58.318Z,7.9
2018-12-18T06:53:59.868Z,7.9
2018-12-18T06:55:01.262Z,7.2
2018-12-18T06:56:02.843Z,7.3
2018-12-18T06:57:04.384Z,7.4
2018-12-18T06:58:05.619Z,7.5
2018-12-18T06:59:06.701Z,7.6
2018-12-18T07:00:07.918Z,7.7
2018-12-18T07:01:09.455Z,7.7
2018-12-18T07:02:10.664Z,7.8
2018-12-18T07:03:12.055Z,7.8
2018-12-18T07:04:13.448Z,7.8
2018-12-18T07:05:18.143Z,7.9
2018-12-18T07:06:19.543Z,7.9
2018-12-18T07:07:21.089Z,7.9
2018-12-18T07:08:22.656Z,7.9
2018-12-18T07:09:24.250Z,7.9
2018-12-18T07:10:25.801Z,7.9
2018-12-18T07:11:27.370Z,7.9
2018-12-18T07:12:28.925Z,7.9
2018-12-18T07:13:30.463Z,7.9
2018-12-18T07:14:31.703Z,7.9
2018-12-18T07:15:33.088Z,7.9
2018-12-18T07:16:35.129Z,7.9
2018-12-18T07:17:36.451Z,7.9
2018-12-18T07:18:37.991Z,7.9
2018-12-18T07:19:39.508Z,7.9
2018-12-18T07:20:41.033Z,7.9
2018-12-18T07:21:42.570Z,7.9
2018-12-18T07:22:44.075Z,7.9
2018-12-18T07:23:45.501Z,7.9
2018-12-18T07:24:47.038Z,7.8
2018-12-18T07:25:48.559Z,7.8
2018-12-18T07:26:49.783Z,7.8
2018-12-18T07:27:51.303Z,7.9
2018-12-18T07:28:52.888Z,7.9
2018-12-18T07:29:54.424Z,7.2
2018-12-18T07:30:55.994Z,7.2
2018-12-18T07:31:57.386Z,7.2
2018-12-18T07:32:58.913Z,7.2
2018-12-18T07:34:00.439Z,7.2
2018-12-18T07:35:01.979Z,7.2
2018-12-18T07:36:03.526Z,7.2
2018-12-18T07:37:05.066Z,7.2
2018-12-18T07:38:06.620Z,7.2
2018-12-18T07:39:08.008Z,7.2
2018-12-18T07:40:09.563Z,7.2
2018-12-18T07:41:10.960Z,7.2
2018-12-18T07:42:12.502Z,7.2
2018-12-18T07:43:14.256Z,7.2
2018-12-18T07:44:15.634Z,7.2
2018-12-18T07:45:17.170Z,7.2
2018-12-18T07:46:18.761Z,7.2
2018-12-18T07:47:20.304Z,7.2
2018-12-18T07:48:21.686Z,7.1
2018-12-18T07:49:23.239Z,7.2
2018-12-18T07:50:24.604Z,7.1
2018-12-18T07:51:26.132Z,7.1
2018-12-18T07:52:27.654Z,7.2
2018-12-18T07:53:29.199Z,7.2
2018-12-18T07:54:30.734Z,7.2
2018-12-18T07:55:32.251Z,7.2
2018-12-18T07:56:33.640Z,7.2
2018-12-18T07:57:35.017Z,7.2
2018-12-18T07:58:36.548Z,7.2
2018-12-18T07:59:38.083Z,7.2
2018-12-18T08:00:39.705Z,7.2
2018-12-18T08:01:41.234Z,7.2
2018-12-18T08:02:42.619Z,7.3
2018-12-18T08:03:43.985Z,7.3
2018-12-18T08:04:45.569Z,7.3
2018-12-18T08:05:47.108Z,7.4
2018-12-18T08:06:48.644Z,7.4
2018-12-18T08:07:50.187Z,7.5
2018-12-18T08:08:51.554Z,7.5
2018-12-18T08:09:53.105Z,7.5
2018-12-18T08:10:54.718Z,7.6
2018-12-18T08:11:56.286Z,7.6
2018-12-18T08:12:57.806Z,7.6
2018-12-18T08:13:59.406Z,7.6
2018-12-18T08:15:00.774Z,7.7
2018-12-18T08:16:02.314Z,7.7
2018-12-18T08:17:03.723Z,7.7
2018-12-18T08:18:05.272Z,7.7
2018-12-18T08:19:06.824Z,7.7
2018-12-18T08:20:08.208Z,7.7
2018-12-18T08:21:09.586Z,7.7
2018-12-18T08:22:11.124Z,7.8
2018-12-18T08:23:12.689Z,7.8
2018-12-18T08:24:14.259Z,7.8
2018-12-18T08:25:15.803Z,7.8
2018-12-18T08:26:17.020Z,7.8
2018-12-18T08:27:18.567Z,7.8
2018-12-18T08:28:20.114Z,7.8
2018-12-18T08:29:21.632Z,7.8
2018-12-18T08:30:23.034Z,7.8
2018-12-18T08:31:24.556Z,7.8
2018-12-18T08:32:25.771Z,7.8
2018-12-18T08:33:27.300Z,7.8
2018-12-18T08:34:28.680Z,7.8
2018-12-18T08:35:36.751Z,7.8
2018-12-18T08:36:38.141Z,7.8
2018-12-18T08:37:40.829Z,7.7
2018-12-18T08:38:42.354Z,7.7
2018-12-18T08:39:43.878Z,7.7
2018-12-18T08:40:45.416Z,7.7
2018-12-18T08:41:46.937Z,7.7
2018-12-18T08:42:48.324Z,7.7
2018-12-18T08:43:49.554Z,7.7
2018-12-18T08:44:51.086Z,7.8
2018-12-18T08:45:52.624Z,7.7
2018-12-18T08:46:54.152Z,7.7
2018-12-18T08:47:55.698Z,7.7
2018-12-18T08:48:57.234Z,7.7
2018-12-18T08:49:58.625Z,7.7
2018-12-18T08:51:00.184Z,7.7
2018-12-18T08:52:01.714Z,7.7
2018-12-18T08:53:03.266Z,7.7
2018-12-18T08:54:04.804Z,7.6
2018-12-18T08:55:06.166Z,7.6
2018-12-18T08:56:07.721Z,7.6
2018-12-18T08:57:09.294Z,7.6
2018-12-18T08:58:10.672Z,7.6
2018-12-18T08:59:12.234Z,7.5
2018-12-18T09:00:13.773Z,7.4
2018-12-18T09:01:20.664Z,7.4
2018-12-18T09:02:22.197Z,7.4
2018-12-18T09:03:23.720Z,7.4
2018-12-18T09:04:25.091Z,7.4
2018-12-18T09:05:26.664Z,7.5
2018-12-18T09:06:28.180Z,7.5
2018-12-18T09:07:29.692Z,7.5
2018-12-18T09:08:30.914Z,7.6
2018-12-18T09:09:32.508Z,7.6
2018-12-18T09:10:40.707Z,7.6
2018-12-18T09:11:42.094Z,7.6
2018-12-18T09:12:43.463Z,7.6
2018-12-18T09:13:44.852Z,7.5
2018-12-18T09:14:46.394Z,7.4
2018-12-18T09:15:47.620Z,7.3
2018-12-18T09:16:49.143Z,7.2
2018-12-18T09:17:50.742Z,7.1
2018-12-18T09:18:52.302Z,7.2
2018-12-18T09:19:53.692Z,7.2
2018-12-18T09:20:54.949Z,7.2
2018-12-18T09:21:56.477Z,7.2
2018-12-18T09:22:57.863Z,7.2
2018-12-18T09:23:59.262Z,7.2
2018-12-18T09:25:00.801Z,7.2
2018-12-18T09:26:02.188Z,7.2
2018-12-18T09:27:03.596Z,7.2
2018-12-18T09:28:05.128Z,7.2
2018-12-18T09:29:06.684Z,7.2
2018-12-18T09:30:08.272Z,7.2
2018-12-18T09:31:09.717Z,7.2
2018-12-18T09:32:11.166Z,7.2
2018-12-18T09:33:12.703Z,7.2
2018-12-18T09:34:14.275Z,7.2
2018-12-18T09:35:15.802Z,7.3
2018-12-18T09:36:17.030Z,7.3
2018-12-18T09:37:18.556Z,7.4
2018-12-18T09:38:20.094Z,7.4
2018-12-18T09:39:21.314Z,7.5
2018-12-18T09:40:22.689Z,7.6
2018-12-18T09:41:24.076Z,7.6
2018-12-18T09:42:25.615Z,7.7
2018-12-18T09:43:26.842Z,7.8
2018-12-18T09:44:28.371Z,7.8
2018-12-18T09:45:29.753Z,7.8
2018-12-18T09:46:31.282Z,7.8
2018-12-18T09:47:32.818Z,7.9
2018-12-18T09:48:34.347Z,7.9
2018-12-18T09:49:35.883Z,7.9
2018-12-18T09:50:37.260Z,7.9
2018-12-18T09:51:38.653Z,7.8
2018-12-18T09:52:40.195Z,7.8
2018-12-18T09:53:41.723Z,7.8
2018-12-18T09:54:43.268Z,7.9
2018-12-18T09:55:44.823Z,7.9
2018-12-18T09:56:46.354Z,7.9
2018-12-18T09:57:47.910Z,7.9
2018-12-18T09:58:49.461Z,7.9
2018-12-18T09:59:50.875Z,7.9
2018-12-18T10:00:52.083Z,7.9
2018-12-18T10:01:53.627Z,7.9
2018-12-18T10:02:54.856Z,7.8
2018-12-18T10:03:56.392Z,7.8
2018-12-18T10:04:57.924Z,7.8
2018-12-18T10:05:59.326Z,7.8
2018-12-18T10:07:00.546Z,7.7
2018-12-18T10:08:01.788Z,7.7
2018-12-18T10:09:10.067Z,7.7
2018-12-18T10:10:11.597Z,7.6
2018-12-18T10:11:13.153Z,7.6
2018-12-18T10:12:14.685Z,7.6
2018-12-18T10:13:15.769Z,7.6
2018-12-18T10:14:17.321Z,7.6
2018-12-18T10:15:18.858Z,7.6
2018-12-18T10:16:20.414Z,7.7
2018-12-18T10:17:21.793Z,7.7
2018-12-18T10:18:23.359Z,7.7
2018-12-18T10:19:24.743Z,7.7
2018-12-18T10:20:26.145Z,7.7
2018-12-18T10:21:27.552Z,7.7
2018-12-18T10:22:28.963Z,7.7
2018-12-18T10:23:30.358Z,7.6
2018-12-18T10:24:31.942Z,7.6
2018-12-18T10:25:33.521Z,7.6
2018-12-18T10:26:34.914Z,7.6
2018-12-18T10:27:36.455Z,7.6
2018-12-18T10:28:37.993Z,7.6
2018-12-18T10:29:39.380Z,7.7
2018-12-18T10:30:40.752Z,7.7
2018-12-18T10:31:42.308Z,7.7
2018-12-18T10:32:43.956Z,7.7
2018-12-18T10:33:45.339Z,7.8
2018-12-18T10:34:46.730Z,7.8
2018-12-18T10:35:48.258Z,7.8
2018-12-18T10:36:49.792Z,7.8
2018-12-18T10:37:51.346Z,7.8
2018-12-18T10:38:52.883Z,7.8
2018-12-18T10:39:54.426Z,7.8
2018-12-18T10:40:55.813Z,7.8
2018-12-18T10:41:57.358Z,7.8
2018-12-18T10:42:58.749Z,7.9
2018-12-18T10:44:00.134Z,7.9
2018-12-18T10:45:01.674Z,7.9
2018-12-18T10:46:03.216Z,7.9
2018-12-18T10:47:06.063Z,7.9
2018-12-18T10:48:07.288Z,7.9
2018-12-18T10:49:08.830Z,7.9
2018-12-18T10:50:10.042Z,7.9
2018-12-18T10:51:11.565Z,7.2
2018-12-18T10:52:13.102Z,7.2
2018-12-18T10:53:14.648Z,7.2
2018-12-18T10:54:16.216Z,7.2
2018-12-18T10:55:17.454Z,7.2
2018-12-18T10:56:19.001Z,7.2
2018-12-18T10:57:20.532Z,7.2
2018-12-18T10:58:25.553Z,7.2
2018-12-18T10:59:27.103Z,7.2
2018-12-18T11:00:28.643Z,7.2
2018-12-18T11:01:30.252Z,7.2
2018-12-18T11:02:31.780Z,7.2
2018-12-18T11:03:33.313Z,7.2
2018-12-18T11:04:34.856Z,7.1
2018-12-18T11:05:36.260Z,7.2
2018-12-18T11:06:37.791Z,7.1
2018-12-18T11:07:39.424Z,7.1
2018-12-18T11:08:41.031Z,7.1
2018-12-18T11:09:42.574Z,7.2
2018-12-18T11:10:43.958Z,7.2
2018-12-18T11:11:45.513Z,7.2
2018-12-18T11:12:46.921Z,7.2
2018-12-18T11:13:48.454Z,7.2
2018-12-18T11:14:49.832Z,7.2
2018-12-18T11:15:51.054Z,7.2
2018-12-18T11:16:52.582Z,7.2
2018-12-18T11:17:54.132Z,7.3
2018-12-18T11:18:55.681Z,7.3
2018-12-18T11:19:56.756Z,7.4
2018-12-18T11:20:58.146Z,7.4
2018-12-18T11:21:59.528Z,7.5
2018-12-18T11:23:01.085Z,7.6
2018-12-18T11:24:02.643Z,7.7
2018-12-18T11:25:04.212Z,7.8
2018-12-18T11:26:05.764Z,7.9
2018-12-18T11:27:07.149Z,7.9
2018-12-18T11:28:08.704Z,7.9
2018-12-18T11:29:10.251Z,7.8
2018-12-18T11:30:11.795Z,7.9
2018-12-18T11:31:13.403Z,7.9
2018-12-18T11:32:14.950Z,7.9
2018-12-18T11:33:16.501Z,7.7
2018-12-18T11:34:17.860Z,7.8
2018-12-18T11:35:19.391Z,7.9
2018-12-18T11:36:20.626Z,7.9
2018-12-18T11:37:22.148Z,7.9
2018-12-18T11:38:23.530Z,7.9
2018-12-18T11:39:25.079Z,7.9
2018-12-18T11:40:26.493Z,7.9
2018-12-18T11:41:28.053Z,7.9
2018-12-18T11:42:29.609Z,7.9
2018-12-18T11:43:31.161Z,7.9
2018-12-18T11:44:32.539Z,7.9
2018-12-18T11:45:33.933Z,7.9
2018-12-18T11:46:35.530Z,7.9
2018-12-18T11:47:36.916Z,7.9
2018-12-18T11:48:38.442Z,7.8
2018-12-18T11:49:39.825Z,7.8
2018-12-18T11:50:41.357Z,7.8
2018-12-18T11:51:42.916Z,7.8
2018-12-18T11:52:44.498Z,7.7
2018-12-18T11:53:46.078Z,7.7
2018-12-18T11:54:47.461Z,7.6
2018-12-18T11:55:48.835Z,7.6
2018-12-18T11:56:50.267Z,7.6
2018-12-18T11:57:51.639Z,7.6
2018-12-18T11:58:53.020Z,7.5
2018-12-18T11:59:54.553Z,7.5
2018-12-18T12:00:56.177Z,7.6
2018-12-18T12:01:57.711Z,7.6
2018-12-18T12:02:59.130Z,7.6
2018-12-18T12:04:00.516Z,7.7
2018-12-18T12:05:02.113Z,7.7
2018-12-18T12:06:03.347Z,7.7
2018-12-18T12:07:04.913Z,7.7
2018-12-18T12:08:06.122Z,7.7
2018-12-18T12:09:07.349Z,7.6
2018-12-18T12:10:08.908Z,7.6
2018-12-18T12:11:10.463Z,7.6
2018-12-18T12:12:11.705Z,7.6
2018-12-18T12:13:13.076Z,7.6
2018-12-18T12:14:14.598Z,7.6
2018-12-18T12:15:15.979Z,7.6
2018-12-18T12:16:17.510Z,7.6
2018-12-18T12:17:19.103Z,7.7
2018-12-18T12:18:20.633Z,7.7
2018-12-18T12:19:22.053Z,7.8
2018-12-18T12:20:23.587Z,7.8
2018-12-18T12:21:25.114Z,7.8
2018-12-18T12:22:26.682Z,7.1
2018-12-18T12:23:28.238Z,7.3
2018-12-18T12:24:29.796Z,7.4
2018-12-18T12:25:31.338Z,7.5
2018-12-18T12:26:32.882Z,7.6
2018-12-18T12:27:34.440Z,7.7
2018-12-18T12:28:35.804Z,7.8
2018-12-18T12:29:37.203Z,7.2
2018-12-18T12:30:38.421Z,7.3
2018-12-18T12:31:39.812Z,7.4
2018-12-18T12:32:41.345Z,7.5
2018-12-18T12:33:42.878Z,7.6
2018-12-18T12:34:44.430Z,7.6
2018-12-18T12:35:45.957Z,7.6
2018-12-18T12:36:47.538Z,7.6
2018-12-18T12:37:49.108Z,7.6
2018-12-18T12:38:50.635Z,7.5
2018-12-18T12:39:52.202Z,7.4
2018-12-18T12:40:53.754Z,7.3
2018-12-18T12:41:55.292Z,7.2
2018-12-18T12:42:56.661Z,7.2
2018-12-18T12:43:58.035Z,7.2
2018-12-18T12:44:59.592Z,7.1
2018-12-18T12:46:01.112Z,7.1
2018-12-18T12:47:02.636Z,7.1
2018-12-18T12:48:04.182Z,7.1
2018-12-18T12:49:05.726Z,7.2
2018-12-18T12:50:07.255Z,7.2
2018-12-18T12:51:08.633Z,7.2
2018-12-18T12:52:10.042Z,7.1
2018-12-18T12:53:11.581Z,7.2
2018-12-18T12:54:12.821Z,7.2
2018-12-18T12:55:14.052Z,7.2
2018-12-18T12:56:15.598Z,7.2
2018-12-18T12:57:16.821Z,7.2
2018-12-18T12:58:18.374Z,7.2
2018-12-18T12:59:19.745Z,7.2
2018-12-18T13:00:21.130Z,7.2
2018-12-18T13:01:22.672Z,7.2
2018-12-18T13:02:24.210Z,7.3
2018-12-18T13:03:25.746Z,7.3
2018-12-18T13:04:26.828Z,7.3
2018-12-18T13:05:28.230Z,7.4
2018-12-18T13:06:36.757Z,7.4
2018-12-18T13:07:38.162Z,7.5
2018-12-18T13:08:39.535Z,7.5
2018-12-18T13:09:40.919Z,7.6
2018-12-18T13:10:42.469Z,7.7
2018-12-18T13:11:44.024Z,7.7
2018-12-18T13:12:45.412Z,7.8
2018-12-18T13:13:46.972Z,7.8
2018-12-18T13:14:48.505Z,7.8
2018-12-18T13:15:50.043Z,7.9
2018-12-18T13:16:51.599Z,7.9
2018-12-18T13:17:53.141Z,7.9
2018-12-18T13:18:54.538Z,7.9
2018-12-18T13:19:55.824Z,7.9
2018-12-18T13:20:57.208Z,7.9
2018-12-18T13:21:58.648Z,7.8
2018-12-18T13:23:00.204Z,7.8
2018-12-18T13:24:01.423Z,7.8
2018-12-18T13:25:02.804Z,7.8
2018-12-18T13:26:04.043Z,7.8
2018-12-18T13:27:05.622Z,7.7
2018-12-18T13:28:07.153Z,7.7
2018-12-18T13:29:08.712Z,7.7
2018-12-18T13:30:10.275Z,7.7
2018-12-18T13:31:11.663Z,7.7
2018-12-18T13:32:13.072Z,7.7
2018-12-18T13:33:14.471Z,7.6
2018-12-18T13:34:16.031Z,7.6
2018-12-18T13:35:17.418Z,7.6
2018-12-18T13:36:18.772Z,7.6
2018-12-18T13:37:20.335Z,7.6
2018-12-18T13:38:21.876Z,7.6
2018-12-18T13:39:23.411Z,7.6
2018-12-18T13:40:24.949Z,7.6
2018-12-18T13:41:26.331Z,7.6
2018-12-18T13:42:27.701Z,7.6
2018-12-18T13:43:29.246Z,7.7
2018-12-18T13:44:30.468Z,7.7
2018-12-18T13:45:31.861Z,7.7
2018-12-18T13:46:33.259Z,7.7
2018-12-18T13:47:34.791Z,7.7
2018-12-18T13:48:36.186Z,7.7
2018-12-18T13:49:37.730Z,7.7
2018-12-18T13:50:38.973Z,7.7
2018-12-18T13:51:40.529Z,7.8
2018-12-18T13:52:41.921Z,7.8
2018-12-18T13:53:43.305Z,7.8
2018-12-18T13:54:44.691Z,7.9
2018-12-18T13:55:46.247Z,7.9
2018-12-18T13:56:47.636Z,7.9
2018-12-18T13:57:49.050Z,7.9
2018-12-18T13:58:50.477Z,7.9
2018-12-18T13:59:51.788Z,7.9
2018-12-18T14:00:53.346Z,7.9
2018-12-18T14:01:54.894Z,7.9
2018-12-18T14:02:56.447Z,7.9
2018-12-18T14:03:57.853Z,7.1
2018-12-18T14:04:59.252Z,7.3
2018-12-18T14:06:00.671Z,7.5
2018-12-18T14:07:02.263Z,7.6
2018-12-18T14:08:03.657Z,7.7